createdAt,value
2018-03-20T00:00:29.094Z,1008.80
2018-03-20T00:01:29.042Z,1008.81
2018-03-20T00:02:28.986Z,1008.81
2018-03-20T00:03:28.936Z,1008.79
2018-03-20T00:04:28.888Z,1008.81
2018-03-20T00:05:29.138Z,1008.84
2018-03-20T00:06:28.791Z,1008.86
2018-03-20T00:07:28.745Z,1008.91
2018-03-20T00:08:28.691Z,1008.90
2018-03-20T00:09:28.644Z,1008.88
2018-03-20T00:10:28.595Z,1008.90
2018-03-20T00:11:28.550Z,1008.89
2018-03-20T00:12:28.807Z,1008.98
2018-03-20T00:13:28.449Z,1008.96
2018-03-20T00:14:28.451Z,1008.92
2018-03-20T00:15:28.353Z,1008.90
2018-03-20T00:16:28.304Z,1008.94
2018-03-20T00:17:28.255Z,1008.92
2018-03-20T00:18:28.204Z,1008.98
2018-03-20T00:19:28.461Z,1008.98
2018-03-20T00:20:28.108Z,1009.01
2018-03-20T00:21:28.065Z,1009.01
2018-03-20T00:22:28.016Z,1008.91
2018-03-20T00:23:27.961Z,1008.94
2018-03-20T00:24:27.912Z,1008.96
2018-03-20T00:25:27.865Z,1008.96
2018-03-20T00:26:28.120Z,1008.93
2018-03-20T00:27:27.768Z,1008.97
2018-03-20T00:28:27.722Z,1008.92
2018-03-20T00:29:27.672Z,1008.95
2018-03-20T00:30:27.623Z,1008.96
2018-03-20T00:31:27.581Z,1008.94
2018-03-20T00:32:27.525Z,1008.97
2018-03-20T00:33:27.781Z,1008.92
2018-03-20T00:34:27.428Z,1008.91
2018-03-20T00:35:27.378Z,1008.93
2018-03-20T00:36:27.330Z,1008.88
2018-03-20T00:37:27.293Z,1008.87
2018-03-20T00:38:27.233Z,1008.89
2018-03-20T00:39:27.484Z,1008.91
2018-03-20T00:40:27.142Z,1008.87
2018-03-20T00:41:27.093Z,1008.89
2018-03-20T00:42:27.044Z,1008.81
2018-03-20T00:43:27.041Z,1008.81
2018-03-20T00:44:26.943Z,1008.79
2018-03-20T00:45:27.198Z,1008.85
2018-03-20T00:46:26.847Z,1008.85
2018-03-20T00:47:26.797Z,1008.79
2018-03-20T00:48:26.750Z,1008.78
2018-03-20T00:49:26.700Z,1008.74
2018-03-20T00:50:26.657Z,1008.68
2018-03-20T00:51:26.903Z,1008.69
2018-03-20T00:52:26.555Z,1008.64
2018-03-20T00:53:26.506Z,1008.74
2018-03-20T00:54:26.458Z,1008.74
2018-03-20T00:55:26.407Z,1008.70
2018-03-20T00:56:26.383Z,1008.67
2018-03-20T00:57:26.612Z,1008.73
2018-03-20T00:58:26.263Z,1008.71
2018-03-20T00:59:26.217Z,1008.65
2018-03-20T01:00:26.172Z,1008.62
2018-03-20T01:01:26.118Z,1008.68
2018-03-20T01:02:26.075Z,1008.63
2018-03-20T01:03:26.325Z,1008.64
2018-03-20T01:04:25.972Z,1008.61
2018-03-20T01:05:25.925Z,1008.62
2018-03-20T01:06:25.878Z,1008.64
2018-03-20T01:07:25.829Z,1008.61
2018-03-20T01:08:25.790Z,1008.58
2018-03-20T01:09:26.035Z,1008.59
2018-03-20T01:10:25.736Z,1008.56
2018-03-20T01:11:25.636Z,1008.49
2018-03-20T01:12:25.591Z,1008.51
2018-03-20T01:13:25.546Z,1008.49
2018-03-20T01:14:25.492Z,1008.51
2018-03-20T01:15:25.446Z,1008.57
2018-03-20T01:16:25.696Z,1008.44
2018-03-20T01:17:25.354Z,1008.48
2018-03-20T01:18:25.305Z,1008.42
2018-03-20T01:19:25.271Z,1008.47
2018-03-20T01:20:25.203Z,1008.45
2018-03-20T01:21:25.159Z,1008.49
2018-03-20T01:22:25.106Z,1008.49
2018-03-20T01:23:25.355Z,1008.57
2018-03-20T01:24:25.070Z,1008.55
2018-03-20T01:25:24.959Z,1008.51
2018-03-20T01:26:24.911Z,1008.47
2018-03-20T01:27:24.864Z,1008.39
2018-03-20T01:28:24.816Z,1008.41
2018-03-20T01:29:24.769Z,1008.37
2018-03-20T01:30:25.020Z,1008.36
2018-03-20T01:31:24.672Z,1008.34
2018-03-20T01:32:24.622Z,1008.31
2018-03-20T01:33:24.575Z,1008.25
2018-03-20T01:34:24.528Z,1008.29
2018-03-20T01:35:24.485Z,1008.25
2018-03-20T01:36:24.481Z,1008.20
2018-03-20T01:37:24.684Z,1008.20
2018-03-20T01:38:24.334Z,1008.24
2018-03-20T01:39:24.287Z,1008.21
2018-03-20T01:40:24.239Z,1008.16
2018-03-20T01:41:24.198Z,1008.18
2018-03-20T01:42:24.141Z,1008.16
2018-03-20T01:43:24.094Z,1008.19
2018-03-20T01:44:24.344Z,1008.15
2018-03-20T01:45:23.996Z,1008.15
2018-03-20T01:46:23.950Z,1008.13
2018-03-20T01:47:23.900Z,1008.12
2018-03-20T01:48:23.861Z,1008.15
2018-03-20T01:49:23.806Z,1008.13
2018-03-20T01:50:24.058Z,1008.09
2018-03-20T01:51:23.708Z,1008.14
2018-03-20T01:52:23.666Z,1008.09
2018-03-20T01:53:23.614Z,1008.05
2018-03-20T01:54:23.572Z,1008.07
2018-03-20T01:55:23.518Z,1008.06
2018-03-20T01:56:23.770Z,1008.05
2018-03-20T01:57:23.426Z,1008.06
2018-03-20T01:58:23.429Z,1008.05
2018-03-20T01:59:23.334Z,1008.03
2018-03-20T02:00:23.276Z,1007.98
2018-03-20T02:01:23.231Z,1007.96
2018-03-20T02:02:23.492Z,1007.94
2018-03-20T02:03:23.183Z,1007.92
2018-03-20T02:04:23.091Z,1007.90
2018-03-20T02:05:23.037Z,1007.88
2018-03-20T02:06:22.990Z,1007.87
2018-03-20T02:07:22.942Z,1007.86
2018-03-20T02:08:23.204Z,1007.82
2018-03-20T02:09:22.852Z,1007.86
2018-03-20T02:10:22.798Z,1007.84
2018-03-20T02:11:22.753Z,1007.77
2018-03-20T02:12:22.702Z,1007.85
2018-03-20T02:13:22.654Z,1007.86
2018-03-20T02:14:22.906Z,1007.77
2018-03-20T02:15:22.561Z,1007.82
2018-03-20T02:16:22.512Z,1007.73
2018-03-20T02:17:22.465Z,1007.79
2018-03-20T02:18:22.418Z,1007.72
2018-03-20T02:19:22.365Z,1007.74
2018-03-20T02:20:22.318Z,1007.68
2018-03-20T02:21:22.569Z,1007.71
2018-03-20T02:22:22.224Z,1007.69
2018-03-20T02:23:22.172Z,1007.67
2018-03-20T02:24:22.125Z,1007.67
2018-03-20T02:25:22.077Z,1007.69
2018-03-20T02:26:22.040Z,1007.63
2018-03-20T02:27:21.980Z,1007.66
2018-03-20T02:28:22.232Z,1007.66
2018-03-20T02:29:21.886Z,1007.67
2018-03-20T02:30:21.834Z,1007.61
2018-03-20T02:31:21.785Z,1007.59
2018-03-20T02:32:21.740Z,1007.55
2018-03-20T02:33:21.690Z,1007.50
2018-03-20T02:34:21.641Z,1007.51
2018-03-20T02:35:21.889Z,1007.50
2018-03-20T02:36:21.542Z,1007.46
2018-03-20T02:37:21.493Z,1007.47
2018-03-20T02:38:21.452Z,1007.50
2018-03-20T02:39:21.404Z,1007.49
2018-03-20T02:40:21.349Z,1007.45
2018-03-20T02:41:21.301Z,1007.45
2018-03-20T02:42:21.552Z,1007.48
2018-03-20T02:43:21.210Z,1007.41
2018-03-20T02:44:21.159Z,1007.42
2018-03-20T02:45:21.113Z,1007.42
2018-03-20T02:46:21.061Z,1007.38
2018-03-20T02:47:21.010Z,1007.38
2018-03-20T02:48:20.972Z,1007.43
2018-03-20T02:49:21.218Z,1007.39
2018-03-20T02:50:20.867Z,1007.38
2018-03-20T02:51:20.817Z,1007.44
2018-03-20T02:52:21.072Z,1007.48
2018-03-20T02:53:20.721Z,1007.44
2018-03-20T02:54:20.677Z,1007.48
2018-03-20T02:55:20.624Z,1007.48
2018-03-20T02:56:20.878Z,1007.47
2018-03-20T02:57:20.534Z,1007.46
2018-03-20T02:58:20.480Z,1007.49
2018-03-20T02:59:20.433Z,1007.40
2018-03-20T03:00:20.386Z,1007.42
2018-03-20T03:01:20.341Z,1007.43
2018-03-20T03:02:20.586Z,1007.42
2018-03-20T03:03:20.238Z,1007.42
2018-03-20T03:04:20.251Z,1007.43
2018-03-20T03:05:20.144Z,1007.43
2018-03-20T03:06:20.093Z,1007.39
2018-03-20T03:07:20.048Z,1007.39
2018-03-20T03:08:20.295Z,1007.38
2018-03-20T03:09:19.988Z,1007.42
2018-03-20T03:10:19.902Z,1007.36
2018-03-20T03:11:19.881Z,1007.33
2018-03-20T03:12:19.846Z,1007.35
2018-03-20T03:13:19.753Z,1007.38
2018-03-20T03:14:20.016Z,1007.35
2018-03-20T03:15:19.662Z,1007.39
2018-03-20T03:16:19.609Z,1007.42
2018-03-20T03:17:19.561Z,1007.34
2018-03-20T03:18:19.513Z,1007.32
2018-03-20T03:19:19.464Z,1007.27
2018-03-20T03:20:19.717Z,1007.32
2018-03-20T03:21:19.367Z,1007.32
2018-03-20T03:22:19.325Z,1007.31
2018-03-20T03:23:19.281Z,1007.33
2018-03-20T03:24:19.223Z,1007.36
2018-03-20T03:25:19.174Z,1007.29
2018-03-20T03:26:19.428Z,1007.34
2018-03-20T03:27:19.078Z,1007.35
2018-03-20T03:28:19.033Z,1007.30
2018-03-20T03:29:18.996Z,1007.31
2018-03-20T03:30:18.937Z,1007.30
2018-03-20T03:31:18.899Z,1007.38
2018-03-20T03:32:18.841Z,1007.37
2018-03-20T03:33:19.089Z,1007.34
2018-03-20T03:34:18.742Z,1007.36
2018-03-20T03:35:18.695Z,1007.38
2018-03-20T03:36:18.646Z,1007.30
2018-03-20T03:37:18.596Z,1007.23
2018-03-20T03:38:18.549Z,1007.34
2018-03-20T03:39:18.498Z,1007.33
2018-03-20T03:40:18.768Z,1007.36
2018-03-20T03:41:18.403Z,1007.32
2018-03-20T03:42:18.358Z,1007.33
2018-03-20T03:43:18.317Z,1007.32
2018-03-20T03:44:18.260Z,1007.31
2018-03-20T03:45:18.214Z,1007.32
2018-03-20T03:46:18.168Z,1007.28
2018-03-20T03:47:18.415Z,1007.33
2018-03-20T03:48:18.219Z,1007.37
2018-03-20T03:49:18.020Z,1007.32
2018-03-20T03:50:17.974Z,1007.34
2018-03-20T03:51:17.926Z,1007.32
2018-03-20T03:52:17.876Z,1007.33
2018-03-20T03:53:17.829Z,1007.42
2018-03-20T03:54:18.134Z,1007.46
2018-03-20T03:55:17.737Z,1007.36
2018-03-20T03:56:17.686Z,1007.35
2018-03-20T03:57:17.647Z,1007.34
2018-03-20T03:58:17.594Z,1007.33
2018-03-20T03:59:17.540Z,1007.38
2018-03-20T04:00:17.494Z,1007.39
2018-03-20T04:01:17.746Z,1007.42
2018-03-20T04:02:17.400Z,1007.46
2018-03-20T04:03:17.401Z,1007.47
2018-03-20T04:04:17.304Z,1007.44
2018-03-20T04:05:17.256Z,1007.42
2018-03-20T04:06:17.206Z,1007.40
2018-03-20T04:07:17.459Z,1007.40
2018-03-20T04:08:17.111Z,1007.46
2018-03-20T04:09:17.061Z,1007.40
2018-03-20T04:10:17.014Z,1007.42
2018-03-20T04:11:16.971Z,1007.40
2018-03-20T04:12:16.918Z,1007.39
2018-03-20T04:13:17.171Z,1007.41
2018-03-20T04:14:16.824Z,1007.45
2018-03-20T04:15:16.775Z,1007.45
2018-03-20T04:16:16.727Z,1007.44
2018-03-20T04:17:16.687Z,1007.47
2018-03-20T04:18:16.638Z,1007.49
2018-03-20T04:19:16.890Z,1007.51
2018-03-20T04:20:16.535Z,1007.50
2018-03-20T04:21:16.492Z,1007.48
2018-03-20T04:22:16.444Z,1007.57
2018-03-20T04:23:16.391Z,1007.61
2018-03-20T04:24:16.351Z,1007.59
2018-03-20T04:25:16.598Z,1007.59
2018-03-20T04:26:16.250Z,1007.61
2018-03-20T04:27:16.203Z,1007.65
2018-03-20T04:28:16.213Z,1007.62
2018-03-20T04:29:16.106Z,1007.63
2018-03-20T04:30:16.064Z,1007.69
2018-03-20T04:31:16.312Z,1007.60
2018-03-20T04:32:15.969Z,1007.63
2018-03-20T04:33:15.921Z,1007.63
2018-03-20T04:34:15.870Z,1007.63
2018-03-20T04:35:15.825Z,1007.60
2018-03-20T04:36:15.772Z,1007.57
2018-03-20T04:37:16.025Z,1007.59
2018-03-20T04:38:15.678Z,1007.55
2018-03-20T04:39:15.629Z,1007.57
2018-03-20T04:40:15.585Z,1007.58
2018-03-20T04:41:15.534Z,1007.64
2018-03-20T04:42:15.486Z,1007.57
2018-03-20T04:43:15.442Z,1007.60
2018-03-20T04:44:15.690Z,1007.62
2018-03-20T04:45:15.342Z,1007.59
2018-03-20T04:46:15.347Z,1007.64
2018-03-20T04:47:15.248Z,1007.56
2018-03-20T04:48:15.207Z,1007.61
2018-03-20T04:49:15.154Z,1007.59
2018-03-20T04:50:15.108Z,1007.51
2018-03-20T04:51:15.357Z,1007.55
2018-03-20T04:52:15.059Z,1007.51
2018-03-20T04:53:14.963Z,1007.50
2018-03-20T04:54:15.004Z,1007.55
2018-03-20T04:55:14.871Z,1007.50
2018-03-20T04:56:14.896Z,1007.51
2018-03-20T04:57:14.772Z,1007.57
2018-03-20T04:58:15.026Z,1007.49
2018-03-20T04:59:14.691Z,1007.43
2018-03-20T05:00:14.628Z,1007.47
2018-03-20T05:01:14.583Z,1007.51
2018-03-20T05:02:14.535Z,1007.47
2018-03-20T05:03:14.541Z,1007.44
2018-03-20T05:04:14.439Z,1007.47
2018-03-20T05:05:14.693Z,1007.43
2018-03-20T05:06:14.345Z,1007.45
2018-03-20T05:07:14.298Z,1007.38
2018-03-20T05:08:14.249Z,1007.39
2018-03-20T05:09:14.252Z,1007.39
2018-03-20T05:10:14.163Z,1007.41
2018-03-20T05:11:14.116Z,1007.40
2018-03-20T05:12:14.374Z,1007.41
2018-03-20T05:13:14.013Z,1007.40
2018-03-20T05:14:13.968Z,1007.48
2018-03-20T05:15:13.986Z,1007.50
2018-03-20T05:16:13.870Z,1007.46
2018-03-20T05:17:13.826Z,1007.47
2018-03-20T05:18:14.078Z,1007.48
2018-03-20T05:19:13.739Z,1007.50
2018-03-20T05:20:13.680Z,1007.47
2018-03-20T05:21:13.636Z,1007.49
2018-03-20T05:22:13.588Z,1007.60
2018-03-20T05:23:13.540Z,1007.58
2018-03-20T05:24:13.794Z,1007.60
2018-03-20T05:25:13.458Z,1007.58
2018-03-20T05:26:13.414Z,1007.58
2018-03-20T05:27:13.352Z,1007.58
2018-03-20T05:28:13.307Z,1007.63
2018-03-20T05:29:13.263Z,1007.66
2018-03-20T05:30:13.511Z,1007.63
2018-03-20T05:31:13.161Z,1007.67
2018-03-20T05:32:13.121Z,1007.65
2018-03-20T05:33:13.069Z,1007.62
2018-03-20T05:34:13.020Z,1007.65
2018-03-20T05:35:12.974Z,1007.58
2018-03-20T05:36:13.227Z,1007.64
2018-03-20T05:37:12.880Z,1007.66
2018-03-20T05:38:12.833Z,1007.64
2018-03-20T05:39:12.886Z,1007.66
2018-03-20T05:40:12.738Z,1007.69
2018-03-20T05:41:12.693Z,1007.68
2018-03-20T05:42:12.946Z,1007.67
2018-03-20T05:43:12.607Z,1007.66
2018-03-20T05:44:12.551Z,1007.71
2018-03-20T05:45:12.501Z,1007.66
2018-03-20T05:46:12.456Z,1007.68
2018-03-20T05:47:12.407Z,1007.76
2018-03-20T05:48:12.659Z,1007.72
2018-03-20T05:49:12.314Z,1007.71
2018-03-20T05:50:12.269Z,1007.79
2018-03-20T05:51:12.245Z,1007.74
2018-03-20T05:52:12.174Z,1007.76
2018-03-20T05:53:12.137Z,1007.79
2018-03-20T05:54:12.084Z,1007.76
2018-03-20T05:55:12.335Z,1007.87
2018-03-20T05:56:11.984Z,1007.84
2018-03-20T05:57:11.939Z,1007.84
2018-03-20T05:58:11.889Z,1007.85
2018-03-20T05:59:11.848Z,1007.83
2018-03-20T06:00:11.796Z,1007.84
2018-03-20T06:01:11.751Z,1007.78
2018-03-20T06:02:12.012Z,1007.87
2018-03-20T06:03:11.658Z,1007.91
2018-03-20T06:04:11.611Z,1007.84
2018-03-20T06:05:11.568Z,1007.98
2018-03-20T06:06:11.678Z,1007.99
2018-03-20T06:07:11.469Z,1007.99
2018-03-20T06:08:11.422Z,1007.95
2018-03-20T06:09:11.678Z,1008.06
2018-03-20T06:10:11.329Z,1008.07
2018-03-20T06:11:11.284Z,1008.08
2018-03-20T06:12:11.434Z,1008.08
2018-03-20T06:13:11.187Z,1008.14
2018-03-20T06:14:11.142Z,1008.11
2018-03-20T06:15:11.093Z,1008.20
2018-03-20T06:16:11.347Z,1008.20
2018-03-20T06:17:11.004Z,1008.23
2018-03-20T06:18:11.009Z,1008.19
2018-03-20T06:19:10.914Z,1008.23
2018-03-20T06:20:10.860Z,1008.28
2018-03-20T06:21:10.814Z,1008.28
2018-03-20T06:22:10.772Z,1008.31
2018-03-20T06:23:11.025Z,1008.32
2018-03-20T06:24:10.735Z,1008.32
2018-03-20T06:25:10.843Z,1008.34
2018-03-20T06:26:10.585Z,1008.37
2018-03-20T06:27:10.536Z,1008.45
2018-03-20T06:28:10.647Z,1008.45
2018-03-20T06:29:10.744Z,1008.48
2018-03-20T06:30:10.398Z,1008.55
2018-03-20T06:31:10.349Z,1008.56
2018-03-20T06:32:10.303Z,1008.63
2018-03-20T06:33:10.264Z,1008.64
2018-03-20T06:34:10.210Z,1008.71
2018-03-20T06:35:10.463Z,1008.69
2018-03-20T06:36:10.116Z,1008.66
2018-03-20T06:37:10.074Z,1008.71
2018-03-20T06:38:10.028Z,1008.71
2018-03-20T06:39:10.032Z,1008.71
2018-03-20T06:40:09.934Z,1008.68
2018-03-20T06:41:10.185Z,1008.65
2018-03-20T06:42:09.889Z,1008.76
2018-03-20T06:43:09.795Z,1008.81
2018-03-20T06:44:09.745Z,1008.88
2018-03-20T06:45:09.700Z,1008.90
2018-03-20T06:46:09.663Z,1008.94
2018-03-20T06:47:10.005Z,1008.99
2018-03-20T06:48:09.558Z,1009.02
2018-03-20T06:49:09.577Z,1008.97
2018-03-20T06:50:09.516Z,1009.02
2018-03-20T06:51:09.418Z,1009.05
2018-03-20T06:52:09.373Z,1009.10
2018-03-20T06:53:09.727Z,1009.03
2018-03-20T06:54:09.297Z,1009.16
2018-03-20T06:55:09.232Z,1009.12
2018-03-20T06:56:09.187Z,1009.08
2018-03-20T06:57:09.209Z,1009.16
2018-03-20T06:58:09.148Z,1009.20
2018-03-20T06:59:09.348Z,1009.18
2018-03-20T07:00:09.552Z,1009.25
2018-03-20T07:01:08.956Z,1009.25
2018-03-20T07:02:09.059Z,1009.28
2018-03-20T07:03:09.013Z,1009.34
2018-03-20T07:04:08.816Z,1009.25
2018-03-20T07:05:08.768Z,1009.30
2018-03-20T07:06:08.729Z,1009.35
2018-03-20T07:07:09.079Z,1009.34
2018-03-20T07:08:08.681Z,1009.34
2018-03-20T07:09:08.738Z,1009.35
2018-03-20T07:10:08.740Z,1009.38
2018-03-20T07:11:08.493Z,1009.39
2018-03-20T07:12:08.446Z,1009.40
2018-03-20T07:13:08.450Z,1009.44
2018-03-20T07:14:08.661Z,1009.37
2018-03-20T07:15:08.313Z,1009.46
2018-03-20T07:16:08.266Z,1009.43
2018-03-20T07:17:08.376Z,1009.50
2018-03-20T07:18:08.272Z,1009.54
2018-03-20T07:19:08.125Z,1009.49
2018-03-20T07:20:08.228Z,1009.54
2018-03-20T07:21:08.341Z,1009.58
2018-03-20T07:22:07.987Z,1009.51
2018-03-20T07:23:07.992Z,1009.55
2018-03-20T07:24:07.896Z,1009.65
2018-03-20T07:25:07.900Z,1009.62
2018-03-20T07:26:07.810Z,1009.62
2018-03-20T07:27:07.808Z,1009.71
2018-03-20T07:28:08.113Z,1009.71
2018-03-20T07:29:07.670Z,1009.67
2018-03-20T07:30:07.682Z,1009.73
2018-03-20T07:31:07.584Z,1009.70
2018-03-20T07:32:07.586Z,1009.89
2018-03-20T07:33:07.538Z,1009.77
2018-03-20T07:34:07.443Z,1009.84
2018-03-20T07:35:07.747Z,1009.85
2018-03-20T07:36:07.350Z,1009.84
2018-03-20T07:37:07.357Z,1010.08
2018-03-20T07:38:07.318Z,1009.95
2018-03-20T07:39:07.222Z,1009.89
2018-03-20T07:40:07.423Z,1009.94
2018-03-20T07:41:07.429Z,1009.95
2018-03-20T07:42:07.147Z,1009.94
2018-03-20T07:43:07.147Z,1010.02
2018-03-20T07:44:06.998Z,1010.03
2018-03-20T07:45:07.003Z,1010.03
2018-03-20T07:46:06.911Z,1010.09
2018-03-20T07:47:07.172Z,1010.10
2018-03-20T07:48:06.874Z,1010.08
2018-03-20T07:49:06.781Z,1010.15
2018-03-20T07:50:06.787Z,1010.09
2018-03-20T07:51:06.703Z,1010.26
2018-03-20T07:52:06.714Z,1010.14
2018-03-20T07:53:07.007Z,1010.29
2018-03-20T07:54:06.574Z,1010.37
2018-03-20T07:55:06.572Z,1010.29
2018-03-20T07:56:06.487Z,1010.33
2018-03-20T07:57:06.733Z,1010.29
2018-03-20T07:58:06.541Z,1010.37
2018-03-20T07:59:06.667Z,1010.33
2018-03-20T08:00:06.504Z,1010.35
2018-03-20T08:01:06.262Z,1010.37
2018-03-20T08:02:06.277Z,1010.54
2018-03-20T08:03:06.277Z,1010.40
2018-03-20T08:04:06.142Z,1010.54
2018-03-20T08:05:06.443Z,1010.57
2018-03-20T08:06:06.046Z,1010.60
2018-03-20T08:07:06.304Z,1010.62
2018-03-20T08:08:06.184Z,1010.73
2018-03-20T08:09:05.926Z,1010.62
2018-03-20T08:10:05.932Z,1010.75
2018-03-20T08:11:05.843Z,1010.74
2018-03-20T08:12:06.297Z,1010.72
2018-03-20T08:13:05.810Z,1010.77
2018-03-20T08:14:05.717Z,1010.80
2018-03-20T08:15:05.724Z,1010.75
2018-03-20T08:16:05.684Z,1010.73
2018-03-20T08:17:05.695Z,1010.80
2018-03-20T08:18:05.654Z,1010.79
2018-03-20T08:19:05.870Z,1010.79
2018-03-20T08:20:05.532Z,1010.85
2018-03-20T08:21:05.641Z,1010.69
2018-03-20T08:22:05.501Z,1010.86
2018-03-20T08:23:05.408Z,1010.90
2018-03-20T08:24:05.386Z,1010.86
2018-03-20T08:25:05.331Z,1010.96
2018-03-20T08:26:05.642Z,1010.97
2018-03-20T08:27:05.259Z,1010.98
2018-03-20T08:28:05.168Z,1010.93
2018-03-20T08:29:05.378Z,1011.02
2018-03-20T08:30:05.242Z,1011.03
2018-03-20T08:31:05.106Z,1011.13
2018-03-20T08:32:05.176Z,1011.09
2018-03-20T08:33:05.281Z,1011.04
2018-03-20T08:34:04.990Z,1011.15
2018-03-20T08:35:05.108Z,1011.17
2018-03-20T08:36:05.018Z,1011.15
2018-03-20T08:37:05.130Z,1011.16
2018-03-20T08:38:04.800Z,1011.15
2018-03-20T08:39:04.906Z,1011.13
2018-03-20T08:40:05.120Z,1011.21
2018-03-20T08:41:04.740Z,1011.21
2018-03-20T08:42:04.715Z,1011.25
2018-03-20T08:43:04.615Z,1011.25
2018-03-20T08:44:04.629Z,1011.23
2018-03-20T08:45:04.591Z,1011.30
2018-03-20T08:46:04.560Z,1011.26
2018-03-20T08:47:04.866Z,1011.27
2018-03-20T08:48:04.431Z,1011.35
2018-03-20T08:49:04.489Z,1011.30
2018-03-20T08:50:04.511Z,1011.34
2018-03-20T08:51:04.474Z,1011.39
2018-03-20T08:52:04.346Z,1011.39
2018-03-20T08:53:04.555Z,1011.40
2018-03-20T08:54:04.269Z,1011.42
2018-03-20T08:55:04.236Z,1011.44
2018-03-20T08:56:04.200Z,1011.49
2018-03-20T08:57:04.166Z,1011.51
2018-03-20T08:58:04.079Z,1011.47
2018-03-20T08:59:04.162Z,1011.56
2018-03-20T09:00:04.065Z,1011.50
2018-03-20T09:01:04.178Z,1011.52
2018-03-20T09:02:03.989Z,1011.60
2018-03-20T09:03:03.917Z,1011.54
2018-03-20T09:04:04.071Z,1011.61
2018-03-20T09:05:04.388Z,1011.64
2018-03-20T09:06:03.963Z,1011.65
2018-03-20T09:07:03.918Z,1011.68
2018-03-20T09:08:03.731Z,1011.79
2018-03-20T09:09:03.845Z,1011.59
2018-03-20T09:10:03.711Z,1011.66
2018-03-20T09:11:04.177Z,1011.68
2018-03-20T09:12:03.645Z,1011.70
2018-03-20T09:13:03.560Z,1011.74
2018-03-20T09:14:03.580Z,1011.75
2018-03-20T09:15:03.540Z,1011.81
2018-03-20T09:16:03.659Z,1011.76
2018-03-20T09:17:03.773Z,1011.81
2018-03-20T09:18:03.396Z,1011.74
2018-03-20T09:19:03.402Z,1011.82
2018-03-20T09:20:03.372Z,1011.88
2018-03-20T09:21:03.340Z,1011.87
2018-03-20T09:22:03.308Z,1011.90
2018-03-20T09:23:03.518Z,1011.93
2018-03-20T09:24:03.235Z,1011.95
2018-03-20T09:25:03.360Z,1011.92
2018-03-20T09:26:03.174Z,1011.96
2018-03-20T09:27:03.136Z,1011.86
2018-03-20T09:28:03.052Z,1011.95
2018-03-20T09:29:03.168Z,1011.95
2018-03-20T09:30:03.288Z,1012.02
2018-03-20T09:31:03.161Z,1012.02
2018-03-20T09:32:03.068Z,1012.03
2018-03-20T09:33:02.884Z,1012.04
2018-03-20T09:34:03.053Z,1012.02
2018-03-20T09:35:02.873Z,1012.07
2018-03-20T09:36:02.839Z,1012.03
2018-03-20T09:37:03.155Z,1012.05
2018-03-20T09:38:02.727Z,1012.07
2018-03-20T09:39:02.894Z,1012.06
2018-03-20T09:40:02.955Z,1012.11
2018-03-20T09:41:02.621Z,1012.10
2018-03-20T09:42:02.638Z,1012.13
2018-03-20T09:43:02.556Z,1012.19
2018-03-20T09:44:03.073Z,1012.16
2018-03-20T09:45:02.547Z,1012.18
2018-03-20T09:46:02.586Z,1012.22
2018-03-20T09:47:02.477Z,1012.28
2018-03-20T09:48:02.391Z,1012.23
2018-03-20T09:49:02.497Z,1012.29
2018-03-20T09:50:02.378Z,1012.30
2018-03-20T09:51:02.644Z,1012.31
2018-03-20T09:52:02.311Z,1012.35
2018-03-20T09:53:02.228Z,1012.42
2018-03-20T09:54:02.256Z,1012.41
2018-03-20T09:55:02.317Z,1012.37
2018-03-20T09:56:02.134Z,1012.42
2018-03-20T09:57:02.158Z,1012.39
2018-03-20T09:58:02.376Z,1012.36
2018-03-20T09:59:02.342Z,1012.38
2018-03-20T10:00:02.064Z,1012.42
2018-03-20T10:01:01.979Z,1012.42
2018-03-20T10:02:02.249Z,1012.44
2018-03-20T10:03:01.919Z,1012.45
2018-03-20T10:04:01.934Z,1012.43
2018-03-20T10:05:02.211Z,1012.47
2018-03-20T10:06:02.055Z,1012.50
2018-03-20T10:07:01.837Z,1012.56
2018-03-20T10:08:01.755Z,1012.46
2018-03-20T10:09:01.779Z,1012.50
2018-03-20T10:10:01.849Z,1012.45
2018-03-20T10:11:01.966Z,1012.62
2018-03-20T10:12:01.781Z,1012.50
2018-03-20T10:13:01.598Z,1012.57
2018-03-20T10:14:01.672Z,1012.52
2018-03-20T10:15:01.637Z,1012.53
2018-03-20T10:16:01.504Z,1012.57
2018-03-20T10:17:01.776Z,1012.55
2018-03-20T10:18:01.520Z,1012.55
2018-03-20T10:19:01.462Z,1012.57
2018-03-20T10:20:01.440Z,1012.59
2018-03-20T10:21:01.353Z,1012.58
2018-03-20T10:22:01.371Z,1012.56
2018-03-20T10:23:01.586Z,1012.60
2018-03-20T10:24:01.308Z,1012.62
2018-03-20T10:25:01.328Z,1012.68
2018-03-20T10:26:01.194Z,1012.61
2018-03-20T10:27:01.216Z,1012.64
2018-03-20T10:28:01.215Z,1012.63
2018-03-20T10:29:01.448Z,1012.66
2018-03-20T10:30:01.122Z,1012.66
2018-03-20T10:31:01.039Z,1012.67
2018-03-20T10:32:01.056Z,1012.74
2018-03-20T10:33:00.977Z,1012.78
2018-03-20T10:34:01.008Z,1012.72
2018-03-20T10:35:01.365Z,1012.70
2018-03-20T10:36:00.882Z,1012.71
2018-03-20T10:37:01.052Z,1012.67
2018-03-20T10:38:00.826Z,1012.69
2018-03-20T10:39:00.940Z,1012.70
2018-03-20T10:40:00.762Z,1012.77
2018-03-20T10:41:01.029Z,1012.78
2018-03-20T10:42:00.752Z,1012.87
2018-03-20T10:43:00.676Z,1012.85
2018-03-20T10:44:00.698Z,1012.78
2018-03-20T10:45:00.813Z,1012.81
2018-03-20T10:46:00.582Z,1012.75
2018-03-20T10:47:00.806Z,1012.75
2018-03-20T10:48:00.872Z,1012.76
2018-03-20T10:49:00.650Z,1012.77
2018-03-20T10:50:00.560Z,1012.78
2018-03-20T10:51:00.432Z,1012.80
2018-03-20T10:52:00.457Z,1012.88
2018-03-20T10:53:00.573Z,1012.77
2018-03-20T10:54:00.389Z,1012.81
2018-03-20T10:55:00.607Z,1012.82
2018-03-20T10:56:00.284Z,1012.83
2018-03-20T10:57:00.303Z,1012.88
2018-03-20T10:58:00.421Z,1012.86
2018-03-20T10:59:00.250Z,1012.84
2018-03-20T11:00:00.211Z,1012.79
2018-03-20T11:01:00.128Z,1012.91
2018-03-20T11:02:00.450Z,1012.82
2018-03-20T11:03:00.266Z,1012.89
2018-03-20T11:04:00.088Z,1012.87
2018-03-20T11:05:00.159Z,1012.81
2018-03-20T11:05:59.976Z,1012.79
2018-03-20T11:07:00.004Z,1012.85
2018-03-20T11:07:59.967Z,1012.91
2018-03-20T11:09:00.236Z,1012.87
2018-03-20T11:09:59.905Z,1013.00
2018-03-20T11:10:59.832Z,1012.90
2018-03-20T11:11:59.843Z,1012.97
2018-03-20T11:12:59.965Z,1012.98
2018-03-20T11:13:59.790Z,1012.93
2018-03-20T11:14:59.894Z,1012.97
2018-03-20T11:15:59.973Z,1013.04
2018-03-20T11:16:59.701Z,1012.97
2018-03-20T11:17:59.664Z,1013.00
2018-03-20T11:18:59.633Z,1013.04
2018-03-20T11:19:59.605Z,1013.06
2018-03-20T11:20:59.521Z,1013.04
2018-03-20T11:21:59.550Z,1013.11
2018-03-20T11:22:59.818Z,1013.07
2018-03-20T11:23:59.593Z,1013.09
2018-03-20T11:24:59.452Z,1013.12
2018-03-20T11:25:59.424Z,1013.12
2018-03-20T11:26:59.501Z,1013.15
2018-03-20T11:27:59.366Z,1013.14
2018-03-20T11:28:59.638Z,1013.10
2018-03-20T11:29:59.460Z,1013.10
2018-03-20T11:30:59.232Z,1013.10
2018-03-20T11:31:59.498Z,1013.11
2018-03-20T11:32:59.325Z,1013.09
2018-03-20T11:33:59.194Z,1013.17
2018-03-20T11:34:59.463Z,1013.24
2018-03-20T11:35:59.081Z,1013.21
2018-03-20T11:36:59.310Z,1013.28
2018-03-20T11:37:59.175Z,1013.26
2018-03-20T11:38:59.049Z,1013.31
2018-03-20T11:39:59.165Z,1013.24
2018-03-20T11:40:59.237Z,1013.26
2018-03-20T11:41:58.959Z,1013.30
2018-03-20T11:42:58.926Z,1013.33
2018-03-20T11:43:59.048Z,1013.30
2018-03-20T11:44:58.863Z,1013.33
2018-03-20T11:45:58.790Z,1013.30
2018-03-20T11:46:59.256Z,1013.38
2018-03-20T11:47:58.777Z,1013.40
2018-03-20T11:48:58.749Z,1013.34
2018-03-20T11:49:58.816Z,1013.29
2018-03-20T11:50:58.639Z,1013.41
2018-03-20T11:51:58.758Z,1013.48
2018-03-20T11:52:58.933Z,1013.45
2018-03-20T11:53:58.598Z,1013.45
2018-03-20T11:54:58.576Z,1013.42
2018-03-20T11:55:58.490Z,1013.46
2018-03-20T11:56:58.557Z,1013.41
2018-03-20T11:57:58.484Z,1013.39
2018-03-20T11:58:58.451Z,1013.38
2018-03-20T11:59:58.414Z,1013.44
2018-03-20T12:00:58.336Z,1013.50
2018-03-20T12:01:58.457Z,1013.50
2018-03-20T12:02:58.380Z,1013.52
2018-03-20T12:03:58.450Z,1013.46
2018-03-20T12:04:58.570Z,1013.44